This is the latest recevied weather packets stored in our database for station/object TG8AKV-17. If no packets are shown the sender has not sent any weather packets the latest 10 day(s).
| Time | Temp. | Humidity | Pressure | Rain* | Wind** | Luminosity | Snow |
|---|---|---|---|---|---|---|---|
| 1777994865 | 15.56° C | 83% | 1017 hPa | 0 mm | - | - | - |
| 1777994265 | 15.56° C | 85% | 1017 hPa | 0 mm | - | - | - |
| 1777993664 | 16.11° C | 85% | 1017 hPa | 0 mm | - | - | - |
| 1777993063 | 16.11° C | 85% | 1017 hPa | 0 mm | - | - | - |
| 1777992463 | 15.56° C | 86% | 1017 hPa | 0 mm | - | - | - |
| 1777991862 | 15.56° C | 86% | 1017 hPa | 0 mm | - | - | - |
| 1777991262 | 15.56° C | 87% | 1017 hPa | 0 mm | - | - | - |
| 1777990661 | 15.56° C | 85% | 1017 hPa | 0 mm | - | - | - |
| 1777990060 | 15.56° C | 81% | 1017 hPa | 0 mm | - | - | - |
| 1777989460 | 11.11° C | 10% | - | 0 mm | - | - | - |
| 1777988859 | 11.11° C | 10% | - | 0 mm | - | - | - |
| 1777988258 | 11.11° C | 98% | 1017 hPa | 0 mm | - | - | - |
| 1777987658 | 11.11° C | 98% | 1017 hPa | 0 mm | - | - | - |
| 1777987057 | 11.11° C | 10% | - | 0 mm | - | - | - |
| 1777986457 | 11.11° C | 10% | - | 0 mm | - | - | - |
| 1777985856 | 8.89° C | 93% | 1017 hPa | 0 mm | - | - | - |
| 1777985256 | 8.89° C | 93% | 1017 hPa | 0 mm | - | - | - |
| 1777984655 | 9.44° C | 94% | 1017 hPa | 0 mm | - | - | - |
| 1777984055 | 10° C | 94% | 1018 hPa | 0 mm | - | - | - |
| 1777983454 | 10° C | 94% | 1018 hPa | 0 mm | - | - | - |
| 1777982853 | 10° C | 94% | 1018 hPa | 0 mm | - | - | - |
| 1777982253 | 11.11° C | 94% | 1018 hPa | 0 mm | - | - | - |
| 1777981652 | 11.11° C | 94% | 1018 hPa | 0 mm | - | - | - |
| 1777981052 | 11.11° C | 94% | 1017 hPa | 0 mm | - | - | - |
| 1777980451 | 11.11° C | 93% | 1017 hPa | 0 mm | - | - | - |
* Rain latest hour (hover to see other rain measurements)
** Current wind speed in m/s (hover to see current wind gust speed)